sensor_id;sensor_type;location;lat;lon;timestamp;pressure;altitude;pressure_sealevel;temperature;humidity
60099;BME280;62818;49.394;8.686;2023-08-08T00:00:48;100471.28;;;14.92;100.00
60099;BME280;62818;49.394;8.686;2023-08-08T00:01:48;100473.75;;;14.87;100.00
60099;BME280;62818;49.394;8.686;2023-08-08T00:02:49;100481.72;;;14.73;100.00
60099;BME280;62818;49.394;8.686;2023-08-08T00:03:49;100473.00;;;14.58;100.00
60099;BME280;62818;49.394;8.686;2023-08-08T00:04:50;100473.25;;;14.63;100.00
60099;BME280;62818;49.394;8.686;2023-08-08T00:05:50;100472.41;;;14.56;100.00
60099;BME280;62818;49.394;8.686;2023-08-08T00:06:51;100473.88;;;14.65;100.00
60099;BME280;62818;49.394;8.686;2023-08-08T00:07:51;100465.13;;;14.78;100.00
60099;BME280;62818;49.394;8.686;2023-08-08T00:08:52;100468.97;;;14.62;100.00
60099;BME280;62818;49.394;8.686;2023-08-08T00:09:52;100470.59;;;14.63;100.00
60099;BME280;62818;49.394;8.686;2023-08-08T00:10:53;100466.91;;;14.64;100.00
60099;BME280;62818;49.394;8.686;2023-08-08T00:11:53;100470.59;;;14.70;100.00
60099;BME280;62818;49.394;8.686;2023-08-08T00:12:54;100468.78;;;14.70;100.00
60099;BME280;62818;49.394;8.686;2023-08-08T00:13:54;100466.72;;;14.72;100.00
60099;BME280;62818;49.394;8.686;2023-08-08T00:14:55;100465.69;;;14.67;100.00
60099;BME280;62818;49.394;8.686;2023-08-08T00:15:56;100467.00;;;14.97;100.00
60099;BME280;62818;49.394;8.686;2023-08-08T00:16:56;100458.78;;;14.92;100.00
60099;BME280;62818;49.394;8.686;2023-08-08T00:17:57;100460.63;;;14.98;100.00
60099;BME280;62818;49.394;8.686;2023-08-08T00:18:57;100469.00;;;14.75;100.00
60099;BME280;62818;49.394;8.686;2023-08-08T00:19:58;100472.25;;;14.64;100.00
60099;BME280;62818;49.394;8.686;2023-08-08T00:20:58;100461.97;;;14.61;100.00
60099;BME280;62818;49.394;8.686;2023-08-08T00:21:59;100465.84;;;14.59;100.00
60099;BME280;62818;49.394;8.686;2023-08-08T00:23:00;100469.34;;;14.59;100.00
60099;BME280;62818;49.394;8.686;2023-08-08T00:24:00;100466.06;;;14.57;100.00
60099;BME280;62818;49.394;8.686;2023-08-08T00:25:01;100475.13;;;14.69;100.00
60099;BME280;62818;49.394;8.686;2023-08-08T00:26:02;100466.13;;;14.77;100.00
60099;BME280;62818;49.394;8.686;2023-08-08T00:27:02;100468.38;;;14.73;100.00
60099;BME280;62818;49.394;8.686;2023-08-08T00:28:03;100467.38;;;14.81;100.00
60099;BME280;62818;49.394;8.686;2023-08-08T00:29:04;100474.34;;;14.75;100.00
60099;BME280;62818;49.394;8.686;2023-08-08T00:30:05;100469.38;;;14.72;100.00
60099;BME280;62818;49.394;8.686;2023-08-08T00:31:06;100464.25;;;14.71;100.00
60099;BME280;62818;49.394;8.686;2023-08-08T00:32:06;100467.09;;;14.69;100.00
60099;BME280;62818;49.394;8.686;2023-08-08T00:33:07;100460.56;;;14.78;100.00
60099;BME280;62818;49.394;8.686;2023-08-08T00:34:07;100460.84;;;15.03;100.00
60099;BME280;62818;49.394;8.686;2023-08-08T00:35:08;100458.75;;;14.85;100.00
60099;BME280;62818;49.394;8.686;2023-08-08T00:36:09;100463.88;;;14.80;100.00
60099;BME280;62818;49.394;8.686;2023-08-08T00:37:09;100455.31;;;15.05;100.00
60099;BME280;62818;49.394;8.686;2023-08-08T00:38:10;100457.22;;;15.24;100.00
60099;BME280;62818;49.394;8.686;2023-08-08T00:39:10;100461.28;;;15.07;100.00
60099;BME280;62818;49.394;8.686;2023-08-08T00:40:11;100450.94;;;14.77;100.00
60099;BME280;62818;49.394;8.686;2023-08-08T00:41:11;100451.75;;;14.71;100.00
60099;BME280;62818;49.394;8.686;2023-08-08T00:42:12;100456.06;;;14.72;100.00
60099;BME280;62818;49.394;8.686;2023-08-08T00:43:13;100447.69;;;14.89;100.00
60099;BME280;62818;49.394;8.686;2023-08-08T00:44:14;100453.84;;;14.89;100.00
60099;BME280;62818;49.394;8.686;2023-08-08T00:45:14;100454.06;;;15.01;100.00
60099;BME280;62818;49.394;8.686;2023-08-08T00:46:16;100457.78;;;15.00;100.00
60099;BME280;62818;49.394;8.686;2023-08-08T00:47:21;100441.16;;;14.98;100.00
60099;BME280;62818;49.394;8.686;2023-08-08T00:48:21;100450.50;;;14.74;100.00
60099;BME280;62818;49.394;8.686;2023-08-08T00:49:23;100461.00;;;14.75;100.00
60099;BME280;62818;49.394;8.686;2023-08-08T00:50:23;100447.50;;;15.03;100.00
60099;BME280;62818;49.394;8.686;2023-08-08T00:51:25;100452.16;;;14.75;100.00
60099;BME280;62818;49.394;8.686;2023-08-08T00:52:25;100445.44;;;14.99;100.00
60099;BME280;62818;49.394;8.686;2023-08-08T00:53:27;100446.50;;;15.11;100.00
60099;BME280;62818;49.394;8.686;2023-08-08T00:54:31;100455.13;;;15.06;100.00
60099;BME280;62818;49.394;8.686;2023-08-08T00:55:32;100455.25;;;14.78;100.00
60099;BME280;62818;49.394;8.686;2023-08-08T00:56:32;100451.28;;;14.61;100.00
60099;BME280;62818;49.394;8.686;2023-08-08T00:57:33;100450.91;;;14.64;100.00
60099;BME280;62818;49.394;8.686;2023-08-08T00:58:35;100448.63;;;14.61;100.00
60099;BME280;62818;49.394;8.686;2023-08-08T00:59:36;100445.94;;;14.61;100.00
60099;BME280;62818;49.394;8.686;2023-08-08T01:00:36;100450.47;;;14.61;100.00
60099;BME280;62818;49.394;8.686;2023-08-08T01:01:37;100448.50;;;14.82;100.00
60099;BME280;62818;49.394;8.686;2023-08-08T01:02:38;100451.75;;;14.71;100.00
60099;BME280;62818;49.394;8.686;2023-08-08T01:03:38;100448.84;;;14.66;100.00
60099;BME280;62818;49.394;8.686;2023-08-08T01:04:39;100449.50;;;14.75;100.00
60099;BME280;62818;49.394;8.686;2023-08-08T01:05:47;100441.94;;;14.92;100.00
60099;BME280;62818;49.394;8.686;2023-08-08T01:07:15;100450.97;;;14.91;100.00
60099;BME280;62818;49.394;8.686;2023-08-08T01:08:22;100449.69;;;14.67;100.00
60099;BME280;62818;49.394;8.686;2023-08-08T01:09:36;100446.41;;;14.65;100.00
60099;BME280;62818;49.394;8.686;2023-08-08T01:10:41;100439.81;;;14.67;100.00
60099;BME280;62818;49.394;8.686;2023-08-08T01:11:43;100444.78;;;14.77;100.00
60099;BME280;62818;49.394;8.686;2023-08-08T01:12:51;100445.00;;;14.75;100.00
60099;BME280;62818;49.394;8.686;2023-08-08T01:13:55;100448.22;;;14.58;100.00
60099;BME280;62818;49.394;8.686;2023-08-08T01:14:57;100444.38;;;14.73;100.00
60099;BME280;62818;49.394;8.686;2023-08-08T01:15:58;100441.84;;;14.65;100.00
60099;BME280;62818;49.394;8.686;2023-08-08T01:17:00;100441.19;;;14.50;100.00
60099;BME280;62818;49.394;8.686;2023-08-08T01:18:07;100440.97;;;14.52;100.00
60099;BME280;62818;49.394;8.686;2023-08-08T01:19:12;100441.88;;;14.72;100.00
60099;BME280;62818;49.394;8.686;2023-08-08T01:20:21;100442.53;;;14.87;100.00
60099;BME280;62818;49.394;8.686;2023-08-08T01:21:25;100446.81;;;14.68;100.00
60099;BME280;62818;49.394;8.686;2023-08-08T01:22:37;100443.09;;;14.69;100.00
60099;BME280;62818;49.394;8.686;2023-08-08T01:24:01;100449.63;;;14.54;100.00
60099;BME280;62818;49.394;8.686;2023-08-08T01:25:22;100448.44;;;14.76;100.00
60099;BME280;62818;49.394;8.686;2023-08-08T01:26:24;100443.16;;;14.82;100.00
60099;BME280;62818;49.394;8.686;2023-08-08T01:27:25;100440.81;;;14.53;100.00
60099;BME280;62818;49.394;8.686;2023-08-08T01:28:26;100439.50;;;14.36;100.00
60099;BME280;62818;49.394;8.686;2023-08-08T01:29:27;100441.84;;;14.59;100.00
60099;BME280;62818;49.394;8.686;2023-08-08T01:30:28;100439.84;;;14.80;100.00
60099;BME280;62818;49.394;8.686;2023-08-08T01:31:28;100447.06;;;14.87;100.00
60099;BME280;62818;49.394;8.686;2023-08-08T01:32:29;100444.19;;;14.81;100.00
60099;BME280;62818;49.394;8.686;2023-08-08T01:33:29;100442.22;;;14.49;100.00
60099;BME280;62818;49.394;8.686;2023-08-08T01:34:30;100435.59;;;14.39;100.00
60099;BME280;62818;49.394;8.686;2023-08-08T01:35:35;100435.88;;;14.16;100.00
60099;BME280;62818;49.394;8.686;2023-08-08T01:36:49;100436.34;;;14.26;100.00
60099;BME280;62818;49.394;8.686;2023-08-08T01:38:03;100439.72;;;14.41;100.00
60099;BME280;62818;49.394;8.686;2023-08-08T01:39:11;100431.94;;;14.46;100.00
60099;BME280;62818;49.394;8.686;2023-08-08T01:40:17;100437.94;;;14.55;100.00
60099;BME280;62818;49.394;8.686;2023-08-08T01:41:20;100441.69;;;14.67;100.00
60099;BME280;62818;49.394;8.686;2023-08-08T01:42:23;100443.53;;;14.66;100.00
60099;BME280;62818;49.394;8.686;2023-08-08T01:43:25;100441.34;;;14.36;100.00
60099;BME280;62818;49.394;8.686;2023-08-08T01:44:28;100436.91;;;14.49;100.00
60099;BME280;62818;49.394;8.686;2023-08-08T01:45:29;100433.31;;;14.29;100.00
60099;BME280;62818;49.394;8.686;2023-08-08T01:46:30;100442.03;;;14.23;100.00
60099;BME280;62818;49.394;8.686;2023-08-08T01:47:31;100442.47;;;14.20;100.00
60099;BME280;62818;49.394;8.686;2023-08-08T01:48:32;100443.41;;;14.40;100.00
60099;BME280;62818;49.394;8.686;2023-08-08T01:49:33;100439.69;;;14.35;100.00
60099;BME280;62818;49.394;8.686;2023-08-08T01:50:33;100442.78;;;14.38;100.00
60099;BME280;62818;49.394;8.686;2023-08-08T01:51:34;100447.81;;;14.27;100.00
60099;BME280;62818;49.394;8.686;2023-08-08T01:52:34;100442.19;;;14.08;100.00
60099;BME280;62818;49.394;8.686;2023-08-08T01:53:35;100433.81;;;14.11;100.00
60099;BME280;62818;49.394;8.686;2023-08-08T01:54:36;100431.78;;;14.20;100.00
60099;BME280;62818;49.394;8.686;2023-08-08T01:55:38;100430.84;;;14.34;100.00
60099;BME280;62818;49.394;8.686;2023-08-08T01:56:38;100435.22;;;14.42;100.00
60099;BME280;62818;49.394;8.686;2023-08-08T01:57:39;100437.53;;;14.58;100.00
60099;BME280;62818;49.394;8.686;2023-08-08T01:58:39;100441.84;;;14.59;100.00
60099;BME280;62818;49.394;8.686;2023-08-08T01:59:40;100449.59;;;14.47;100.00
60099;BME280;62818;49.394;8.686;2023-08-08T02:00:40;100436.00;;;14.36;100.00
60099;BME280;62818;49.394;8.686;2023-08-08T02:01:41;100436.00;;;14.36;100.00
60099;BME280;62818;49.394;8.686;2023-08-08T02:02:41;100437.13;;;14.20;100.00
60099;BME280;62818;49.394;8.686;2023-08-08T02:03:42;100433.84;;;14.18;100.00
60099;BME280;62818;49.394;8.686;2023-08-08T02:04:43;100435.78;;;14.31;100.00
60099;BME280;62818;49.394;8.686;2023-08-08T02:05:44;100434.78;;;14.38;100.00
60099;BME280;62818;49.394;8.686;2023-08-08T02:06:44;100433.66;;;14.26;100.00
60099;BME280;62818;49.394;8.686;2023-08-08T02:07:45;100440.72;;;14.06;100.00
60099;BME280;62818;49.394;8.686;2023-08-08T02:08:46;100434.06;;;13.89;100.00
60099;BME280;62818;49.394;8.686;2023-08-08T02:09:46;100426.88;;;13.83;100.00
60099;BME280;62818;49.394;8.686;2023-08-08T02:10:47;100430.00;;;13.93;100.00
60099;BME280;62818;49.394;8.686;2023-08-08T02:11:47;100427.66;;;14.11;100.00
60099;BME280;62818;49.394;8.686;2023-08-08T02:12:48;100428.84;;;14.36;100.00
60099;BME280;62818;49.394;8.686;2023-08-08T02:13:48;100433.09;;;14.31;100.00
60099;BME280;62818;49.394;8.686;2023-08-08T02:14:49;100428.03;;;14.08;100.00
60099;BME280;62818;49.394;8.686;2023-08-08T02:15:49;100433.25;;;13.88;100.00
60099;BME280;62818;49.394;8.686;2023-08-08T02:16:50;100424.66;;;13.93;100.00
60099;BME280;62818;49.394;8.686;2023-08-08T02:17:50;100424.28;;;13.96;100.00
60099;BME280;62818;49.394;8.686;2023-08-08T02:18:51;100423.41;;;13.89;100.00
60099;BME280;62818;49.394;8.686;2023-08-08T02:19:52;100418.56;;;14.05;100.00
60099;BME280;62818;49.394;8.686;2023-08-08T02:20:52;100430.94;;;14.13;100.00
60099;BME280;62818;49.394;8.686;2023-08-08T02:21:53;100415.91;;;14.33;100.00
60099;BME280;62818;49.394;8.686;2023-08-08T02:22:53;100423.34;;;14.51;100.00
60099;BME280;62818;49.394;8.686;2023-08-08T02:23:54;100422.84;;;14.34;100.00
60099;BME280;62818;49.394;8.686;2023-08-08T02:24:54;100425.00;;;14.58;100.00
60099;BME280;62818;49.394;8.686;2023-08-08T02:25:55;100423.28;;;14.31;100.00
60099;BME280;62818;49.394;8.686;2023-08-08T02:26:55;100418.19;;;14.43;100.00
60099;BME280;62818;49.394;8.686;2023-08-08T02:27:56;100420.34;;;14.26;100.00
60099;BME280;62818;49.394;8.686;2023-08-08T02:28:57;100424.44;;;14.22;100.00
60099;BME280;62818;49.394;8.686;2023-08-08T02:29:58;100425.75;;;14.39;100.00
60099;BME280;62818;49.394;8.686;2023-08-08T02:30:59;100421.38;;;14.25;100.00
60099;BME280;62818;49.394;8.686;2023-08-08T02:31:59;100425.16;;;14.03;100.00
60099;BME280;62818;49.394;8.686;2023-08-08T02:33:00;100428.38;;;13.92;100.00
60099;BME280;62818;49.394;8.686;2023-08-08T02:34:01;100422.63;;;13.95;100.00
60099;BME280;62818;49.394;8.686;2023-08-08T02:35:01;100423.16;;;13.84;100.00
60099;BME280;62818;49.394;8.686;2023-08-08T02:36:02;100431.94;;;13.78;100.00
60099;BME280;62818;49.394;8.686;2023-08-08T02:37:03;100430.41;;;13.90;100.00
60099;BME280;62818;49.394;8.686;2023-08-08T02:38:03;100437.28;;;13.78;100.00
60099;BME280;62818;49.394;8.686;2023-08-08T02:39:04;100437.56;;;13.89;100.00
60099;BME280;62818;49.394;8.686;2023-08-08T02:40:05;100439.47;;;14.02;100.00
60099;BME280;62818;49.394;8.686;2023-08-08T02:41:07;100429.66;;;14.02;100.00
60099;BME280;62818;49.394;8.686;2023-08-08T02:42:07;100432.03;;;14.25;100.00
60099;BME280;62818;49.394;8.686;2023-08-08T02:43:08;100437.22;;;14.33;100.00
60099;BME280;62818;49.394;8.686;2023-08-08T02:44:10;100438.31;;;14.11;100.00
60099;BME280;62818;49.394;8.686;2023-08-08T02:45:10;100438.56;;;14.16;100.00
60099;BME280;62818;49.394;8.686;2023-08-08T02:46:11;100430.88;;;14.00;100.00
60099;BME280;62818;49.394;8.686;2023-08-08T02:47:11;100435.53;;;13.91;100.00
60099;BME280;62818;49.394;8.686;2023-08-08T02:48:12;100427.88;;;13.82;100.00
60099;BME280;62818;49.394;8.686;2023-08-08T02:49:12;100434.31;;;13.94;100.00
60099;BME280;62818;49.394;8.686;2023-08-08T02:50:13;100433.53;;;14.00;100.00
60099;BME280;62818;49.394;8.686;2023-08-08T02:51:13;100433.25;;;13.88;100.00
60099;BME280;62818;49.394;8.686;2023-08-08T02:52:14;100428.66;;;13.76;100.00
60099;BME280;62818;49.394;8.686;2023-08-08T02:53:14;100428.31;;;13.85;100.00
60099;BME280;62818;49.394;8.686;2023-08-08T02:54:15;100431.16;;;13.84;100.00
60099;BME280;62818;49.394;8.686;2023-08-08T02:55:15;100420.16;;;13.93;100.00
60099;BME280;62818;49.394;8.686;2023-08-08T02:56:16;100424.28;;;13.96;100.00
60099;BME280;62818;49.394;8.686;2023-08-08T02:57:16;100425.88;;;13.90;100.00
60099;BME280;62818;49.394;8.686;2023-08-08T02:58:17;100422.59;;;13.88;100.00
60099;BME280;62818;49.394;8.686;2023-08-08T02:59:17;100422.31;;;14.11;100.00
60099;BME280;62818;49.394;8.686;2023-08-08T03:00:18;100425.53;;;14.00;100.00
60099;BME280;62818;49.394;8.686;2023-08-08T03:01:18;100422.53;;;14.09;100.00
60099;BME280;62818;49.394;8.686;2023-08-08T03:02:19;100411.34;;;14.27;100.00
60099;BME280;62818;49.394;8.686;2023-08-08T03:03:19;100422.38;;;14.24;100.00
60099;BME280;62818;49.394;8.686;2023-08-08T03:04:20;100422.06;;;14.34;100.00
60099;BME280;62818;49.394;8.686;2023-08-08T03:05:20;100420.84;;;14.36;100.00
60099;BME280;62818;49.394;8.686;2023-08-08T03:06:21;100430.38;;;14.24;100.00
60099;BME280;62818;49.394;8.686;2023-08-08T03:07:22;100433.00;;;14.18;100.00
60099;BME280;62818;49.394;8.686;2023-08-08T03:08:22;100426.03;;;14.17;100.00
60099;BME280;62818;49.394;8.686;2023-08-08T03:09:23;100431.53;;;14.08;100.00
60099;BME280;62818;49.394;8.686;2023-08-08T03:10:23;100424.28;;;13.96;100.00
60099;BME280;62818;49.394;8.686;2023-08-08T03:11:25;100432.91;;;13.98;100.00
60099;BME280;62818;49.394;8.686;2023-08-08T03:12:25;100424.44;;;14.22;100.00
60099;BME280;62818;49.394;8.686;2023-08-08T03:13:26;100424.50;;;14.35;100.00
60099;BME280;62818;49.394;8.686;2023-08-08T03:14:27;100427.38;;;14.34;100.00
60099;BME280;62818;49.394;8.686;2023-08-08T03:15:27;100431.88;;;13.99;100.00
60099;BME280;62818;49.394;8.686;2023-08-08T03:16:28;100432.25;;;13.89;100.00
60099;BME280;62818;49.394;8.686;2023-08-08T03:17:28;100420.75;;;13.89;100.00
60099;BME280;62818;49.394;8.686;2023-08-08T03:18:29;100429.16;;;13.92;100.00
60099;BME280;62818;49.394;8.686;2023-08-08T03:19:29;100425.06;;;13.90;100.00
60099;BME280;62818;49.394;8.686;2023-08-08T03:20:30;100424.28;;;13.96;100.00
60099;BME280;62818;49.394;8.686;2023-08-08T03:21:30;100423.75;;;13.79;100.00
60099;BME280;62818;49.394;8.686;2023-08-08T03:22:31;100424.53;;;13.73;100.00
60099;BME280;62818;49.394;8.686;2023-08-08T03:23:32;100423.72;;;13.73;100.00
60099;BME280;62818;49.394;8.686;2023-08-08T03:24:32;100416.34;;;13.75;100.00
60099;BME280;62818;49.394;8.686;2023-08-08T03:25:42;100410.25;;;13.81;100.00
60099;BME280;62818;49.394;8.686;2023-08-08T03:26:42;100420.13;;;13.87;100.00
60099;BME280;62818;49.394;8.686;2023-08-08T03:27:43;100417.63;;;13.79;100.00
60099;BME280;62818;49.394;8.686;2023-08-08T03:28:43;100418.88;;;13.83;100.00
60099;BME280;62818;49.394;8.686;2023-08-08T03:29:44;100416.91;;;13.98;100.00
60099;BME280;62818;49.394;8.686;2023-08-08T03:30:44;100421.75;;;13.88;100.00
60099;BME280;62818;49.394;8.686;2023-08-08T03:31:46;100412.50;;;13.84;100.00
60099;BME280;62818;49.394;8.686;2023-08-08T03:32:46;100418.66;;;13.84;100.00
60099;BME280;62818;49.394;8.686;2023-08-08T03:33:47;100415.75;;;14.07;100.00
60099;BME280;62818;49.394;8.686;2023-08-08T03:34:48;100414.53;;;14.09;100.00
60099;BME280;62818;49.394;8.686;2023-08-08T03:35:48;100412.19;;;14.34;100.00
60099;BME280;62818;49.394;8.686;2023-08-08T03:36:49;100423.44;;;13.95;100.00
60099;BME280;62818;49.394;8.686;2023-08-08T03:37:49;100416.91;;;13.98;100.00
60099;BME280;62818;49.394;8.686;2023-08-08T03:38:50;100425.28;;;13.95;100.00
60099;BME280;62818;49.394;8.686;2023-08-08T03:39:50;100426.31;;;13.94;100.00
60099;BME280;62818;49.394;8.686;2023-08-08T03:40:51;100424.06;;;13.97;100.00
60099;BME280;62818;49.394;8.686;2023-08-08T03:41:51;100424.91;;;13.98;100.00
60099;BME280;62818;49.394;8.686;2023-08-08T03:42:52;100422.16;;;13.85;100.00
60099;BME280;62818;49.394;8.686;2023-08-08T03:43:52;100422.94;;;13.79;100.00
60099;BME280;62818;49.394;8.686;2023-08-08T03:44:53;100422.06;;;13.72;100.00
60099;BME280;62818;49.394;8.686;2023-08-08T03:45:53;100428.38;;;13.92;100.00
60099;BME280;62818;49.394;8.686;2023-08-08T03:46:54;100420.34;;;14.26;100.00
60099;BME280;62818;49.394;8.686;2023-08-08T03:47:54;100424.13;;;14.04;100.00
60099;BME280;62818;49.394;8.686;2023-08-08T03:48:55;100421.06;;;14.07;100.00
60099;BME280;62818;49.394;8.686;2023-08-08T03:49:55;100425.03;;;13.83;100.00
60099;BME280;62818;49.394;8.686;2023-08-08T03:50:57;100429.16;;;13.92;100.00
60099;BME280;62818;49.394;8.686;2023-08-08T03:51:58;100412.91;;;14.15;100.00
60099;BME280;62818;49.394;8.686;2023-08-08T03:52:58;100425.16;;;14.03;100.00
60099;BME280;62818;49.394;8.686;2023-08-08T03:53:59;100422.97;;;14.20;100.00
60099;BME280;62818;49.394;8.686;2023-08-08T03:54:59;100414.56;;;14.16;100.00
60099;BME280;62818;49.394;8.686;2023-08-08T03:56:00;100417.00;;;14.18;100.00
60099;BME280;62818;49.394;8.686;2023-08-08T03:57:00;100424.75;;;14.06;100.00
60099;BME280;62818;49.394;8.686;2023-08-08T03:58:01;100427.22;;;14.07;100.00
60099;BME280;62818;49.394;8.686;2023-08-08T03:59:03;100426.84;;;14.17;100.00
60099;BME280;62818;49.394;8.686;2023-08-08T04:00:04;100428.19;;;14.34;100.00
60099;BME280;62818;49.394;8.686;2023-08-08T04:01:07;100422.97;;;14.20;100.00
60099;BME280;62818;49.394;8.686;2023-08-08T04:02:08;100427.19;;;14.01;100.00
60099;BME280;62818;49.394;8.686;2023-08-08T04:03:08;100429.28;;;13.78;100.00
60099;BME280;62818;49.394;8.686;2023-08-08T04:04:09;100426.94;;;13.68;100.00
60099;BME280;62818;49.394;8.686;2023-08-08T04:05:09;100427.94;;;13.61;100.00
60099;BME280;62818;49.394;8.686;2023-08-08T04:06:10;100425.66;;;13.58;100.00
60099;BME280;62818;49.394;8.686;2023-08-08T04:07:10;100416.66;;;13.59;100.00
60099;BME280;62818;49.394;8.686;2023-08-08T04:08:11;100429.16;;;13.58;100.00
60099;BME280;62818;49.394;8.686;2023-08-08T04:09:11;100419.50;;;13.57;100.00
60099;BME280;62818;49.394;8.686;2023-08-08T04:10:12;100421.72;;;13.54;100.00
60099;BME280;62818;49.394;8.686;2023-08-08T04:11:13;100418.69;;;13.57;100.00
60099;BME280;62818;49.394;8.686;2023-08-08T04:12:13;100416.41;;;13.54;100.00
60099;BME280;62818;49.394;8.686;2023-08-08T04:13:14;100413.94;;;13.80;100.00
60099;BME280;62818;49.394;8.686;2023-08-08T04:14:14;100421.66;;;13.75;100.00
60099;BME280;62818;49.394;8.686;2023-08-08T04:15:15;100411.66;;;13.77;100.00
60099;BME280;62818;49.394;8.686;2023-08-08T04:16:16;100416.25;;;13.62;100.00
60099;BME280;62818;49.394;8.686;2023-08-08T04:17:16;100426.28;;;13.60;100.00
60099;BME280;62818;49.394;8.686;2023-08-08T04:18:17;100426.66;;;13.84;100.00
60099;BME280;62818;49.394;8.686;2023-08-08T04:19:18;100428.81;;;14.02;100.00
60099;BME280;62818;49.394;8.686;2023-08-08T04:20:19;100425.22;;;13.82;100.00
60099;BME280;62818;49.394;8.686;2023-08-08T04:21:19;100428.19;;;13.66;100.00
60099;BME280;62818;49.394;8.686;2023-08-08T04:22:20;100429.34;;;13.57;100.00
60099;BME280;62818;49.394;8.686;2023-08-08T04:23:20;100424.81;;;13.85;100.00
60099;BME280;62818;49.394;8.686;2023-08-08T04:24:22;100430.69;;;13.74;100.00
60099;BME280;62818;49.394;8.686;2023-08-08T04:25:23;100424.88;;;13.64;100.00
60099;BME280;62818;49.394;8.686;2023-08-08T04:26:23;100430.78;;;13.87;100.00
60099;BME280;62818;49.394;8.686;2023-08-08T04:27:24;100424.97;;;14.11;100.00
60099;BME280;62818;49.394;8.686;2023-08-08T04:28:24;100428.97;;;14.28;100.00
60099;BME280;62818;49.394;8.686;2023-08-08T04:29:25;100430.69;;;14.08;100.00
60099;BME280;62818;49.394;8.686;2023-08-08T04:30:25;100425.94;;;14.03;100.00
60099;BME280;62818;49.394;8.686;2023-08-08T04:31:25;100439.03;;;13.92;100.00
60099;BME280;62818;49.394;8.686;2023-08-08T04:32:26;100430.41;;;13.90;100.00
60099;BME280;62818;49.394;8.686;2023-08-08T04:33:26;100434.53;;;13.99;100.00
60099;BME280;62818;49.394;8.686;2023-08-08T04:34:27;100422.19;;;13.91;100.00
60099;BME280;62818;49.394;8.686;2023-08-08T04:35:27;100428.56;;;13.97;100.00
60099;BME280;62818;49.394;8.686;2023-08-08T04:36:28;100441.44;;;13.87;100.00
60099;BME280;62818;49.394;8.686;2023-08-08T04:37:29;100425.44;;;13.87;100.00
60099;BME280;62818;49.394;8.686;2023-08-08T04:38:30;100437.59;;;13.68;100.00
60099;BME280;62818;49.394;8.686;2023-08-08T04:39:30;100427.78;;;13.69;100.00
60099;BME280;62818;49.394;8.686;2023-08-08T04:40:31;100426.38;;;13.73;100.00
60099;BME280;62818;49.394;8.686;2023-08-08T04:41:31;100431.47;;;13.68;100.00
60099;BME280;62818;49.394;8.686;2023-08-08T04:42:32;100432.91;;;13.98;100.00
60099;BME280;62818;49.394;8.686;2023-08-08T04:43:32;100435.28;;;13.86;100.00
60099;BME280;62818;49.394;8.686;2023-08-08T04:44:33;100442.56;;;13.71;100.00
60099;BME280;62818;49.394;8.686;2023-08-08T04:45:33;100435.69;;;13.56;100.00
60099;BME280;62818;49.394;8.686;2023-08-08T04:46:34;100436.75;;;13.61;100.00
60099;BME280;62818;49.394;8.686;2023-08-08T04:47:34;100436.28;;;13.79;100.00
60099;BME280;62818;49.394;8.686;2023-08-08T04:48:35;100432.72;;;13.72;100.00
60099;BME280;62818;49.394;8.686;2023-08-08T04:49:37;100439.53;;;13.53;100.00
60099;BME280;62818;49.394;8.686;2023-08-08T04:50:38;100440.53;;;13.73;100.00
60099;BME280;62818;49.394;8.686;2023-08-08T04:51:39;100449.13;;;13.75;100.00
60099;BME280;62818;49.394;8.686;2023-08-08T04:52:39;100446.13;;;13.57;100.00
60099;BME280;62818;49.394;8.686;2023-08-08T04:53:40;100442.56;;;13.71;100.00
60099;BME280;62818;49.394;8.686;2023-08-08T04:54:40;100442.97;;;13.75;100.00
60099;BME280;62818;49.394;8.686;2023-08-08T04:55:41;100449.44;;;13.59;100.00
60099;BME280;62818;49.394;8.686;2023-08-08T04:56:41;100442.22;;;13.53;100.00
60099;BME280;62818;49.394;8.686;2023-08-08T04:57:42;100447.88;;;13.44;100.00
60099;BME280;62818;49.394;8.686;2023-08-08T04:58:42;100435.88;;;13.33;100.00
60099;BME280;62818;49.394;8.686;2023-08-08T04:59:43;100436.34;;;13.36;100.00
60099;BME280;62818;49.394;8.686;2023-08-08T05:00:43;100442.31;;;13.38;100.00
60099;BME280;62818;49.394;8.686;2023-08-08T05:01:44;100441.63;;;13.58;100.00
60099;BME280;62818;49.394;8.686;2023-08-08T05:02:44;100446.91;;;13.51;100.00
60099;BME280;62818;49.394;8.686;2023-08-08T05:03:45;100445.44;;;13.49;100.00
60099;BME280;62818;49.394;8.686;2023-08-08T05:04:46;100445.97;;;13.37;100.00
60099;BME280;62818;49.394;8.686;2023-08-08T05:05:46;100444.13;;;13.38;100.00
60099;BME280;62818;49.394;8.686;2023-08-08T05:06:47;100443.56;;;13.43;100.00
60099;BME280;62818;49.394;8.686;2023-08-08T05:07:48;100445.22;;;13.44;100.00
60099;BME280;62818;49.394;8.686;2023-08-08T05:08:50;100449.72;;;13.43;100.00
60099;BME280;62818;49.394;8.686;2023-08-08T05:09:52;100439.91;;;13.44;100.00
60099;BME280;62818;49.394;8.686;2023-08-08T05:10:52;100444.44;;;13.50;100.00
60099;BME280;62818;49.394;8.686;2023-08-08T05:11:53;100445.84;;;13.46;100.00
60099;BME280;62818;49.394;8.686;2023-08-08T05:12:54;100444.00;;;13.46;100.00
60099;BME280;62818;49.394;8.686;2023-08-08T05:13:54;100443.13;;;13.67;100.00
60099;BME280;62818;49.394;8.686;2023-08-08T05:14:55;100439.53;;;13.53;100.00
60099;BME280;62818;49.394;8.686;2023-08-08T05:15:55;100438.09;;;13.51;100.00
60099;BME280;62818;49.394;8.686;2023-08-08T05:16:56;100436.31;;;13.58;100.00